createdAt,value
2022-10-05T00:01:27.235Z,12.22
2022-10-05T00:04:03.382Z,12.18
2022-10-05T00:06:31.897Z,12.12
2022-10-05T00:09:02.360Z,12.11
2022-10-05T00:11:30.711Z,12.11
2022-10-05T00:13:59.791Z,12.09
2022-10-05T00:16:28.190Z,12.02
2022-10-05T00:18:56.441Z,11.98
2022-10-05T00:21:28.050Z,11.98
2022-10-05T00:23:59.617Z,11.98
2022-10-05T00:26:34.372Z,11.99
2022-10-05T00:29:03.816Z,11.98
2022-10-05T00:31:33.954Z,11.97
2022-10-05T00:34:02.825Z,11.95
2022-10-05T00:36:31.187Z,11.93
2022-10-05T00:39:02.796Z,11.93
2022-10-05T00:41:47.858Z,11.95
2022-10-05T00:44:38.423Z,11.97
2022-10-05T00:47:29.141Z,11.96
2022-10-05T00:50:41.929Z,11.94
2022-10-05T00:53:22.388Z,11.90
2022-10-05T00:56:03.241Z,11.89
2022-10-05T00:58:49.962Z,11.86
2022-10-05T01:01:22.636Z,11.87
2022-10-05T01:04:05.030Z,11.81
2022-10-05T01:06:46.577Z,11.80
2022-10-05T01:09:23.886Z,11.74
2022-10-05T01:12:02.841Z,11.73
2022-10-05T01:14:41.735Z,11.71
2022-10-05T01:17:20.046Z,11.67
2022-10-05T01:20:11.491Z,11.64
2022-10-05T01:23:02.399Z,11.62
2022-10-05T01:25:41.140Z,11.61
2022-10-05T01:28:16.664Z,11.60
2022-10-05T01:30:54.903Z,11.54
2022-10-05T01:33:31.878Z,11.50
2022-10-05T01:36:11.013Z,11.51
2022-10-05T01:38:48.898Z,11.44
2022-10-05T01:41:29.874Z,11.35
2022-10-05T01:44:04.576Z,11.34
2022-10-05T01:46:39.674Z,11.37
2022-10-05T01:49:22.792Z,11.33
2022-10-05T01:52:05.642Z,11.28
2022-10-05T01:54:49.785Z,11.23
2022-10-05T01:57:32.572Z,11.20
2022-10-05T02:00:09.574Z,11.17
2022-10-05T02:02:50.045Z,11.14
2022-10-05T02:05:23.240Z,11.12
2022-10-05T02:07:57.194Z,11.12
2022-10-05T02:10:32.776Z,11.10
2022-10-05T02:13:11.479Z,11.11
2022-10-05T02:15:46.768Z,11.09
2022-10-05T02:18:21.494Z,11.04
2022-10-05T02:20:52.794Z,11.01
2022-10-05T02:23:27.012Z,10.97
2022-10-05T02:25:57.485Z,10.89
2022-10-05T02:28:32.772Z,10.85
2022-10-05T02:31:06.841Z,10.76
2022-10-05T02:33:36.712Z,10.77
2022-10-05T02:36:16.991Z,10.72
2022-10-05T02:39:09.100Z,10.71
2022-10-05T02:41:49.845Z,10.69
2022-10-05T02:44:31.972Z,10.67
2022-10-05T02:47:14.690Z,10.64
2022-10-05T02:49:48.979Z,10.63
2022-10-05T02:52:24.366Z,10.66
2022-10-05T02:55:03.415Z,10.67
2022-10-05T02:57:40.444Z,10.69
2022-10-05T03:00:16.972Z,10.64
2022-10-05T03:02:57.717Z,10.60
2022-10-05T03:05:31.896Z,10.58
2022-10-05T03:08:09.962Z,10.52
2022-10-05T03:10:47.179Z,10.49
2022-10-05T03:13:27.794Z,10.45
2022-10-05T03:16:15.415Z,10.39
2022-10-05T03:19:00.999Z,10.35
2022-10-05T03:21:48.366Z,10.31
2022-10-05T03:24:42.369Z,10.27
2022-10-05T03:27:24.367Z,10.27
2022-10-05T03:30:04.870Z,10.27
2022-10-05T03:32:50.633Z,10.26
2022-10-05T03:35:29.215Z,10.22
2022-10-05T03:38:10.643Z,10.22
2022-10-05T03:40:46.579Z,10.21
2022-10-05T03:43:35.952Z,10.16
2022-10-05T03:46:10.450Z,10.18
2022-10-05T03:48:49.647Z,10.12
2022-10-05T03:51:29.887Z,10.07
2022-10-05T03:54:04.213Z,10.05
2022-10-05T03:56:38.470Z,10.01
2022-10-05T03:59:15.913Z,9.97
2022-10-05T04:01:52.295Z,9.96
2022-10-05T04:04:26.750Z,9.91
2022-10-05T04:06:57.848Z,9.87
2022-10-05T04:09:33.037Z,9.85
2022-10-05T04:12:13.806Z,9.83
2022-10-05T04:14:45.956Z,9.78
2022-10-05T04:17:17.896Z,9.76
2022-10-05T04:19:57.662Z,9.76
2022-10-05T04:22:35.948Z,9.72
2022-10-05T04:25:15.647Z,9.66
2022-10-05T04:27:48.638Z,9.64
2022-10-05T04:30:20.067Z,9.62
2022-10-05T04:32:55.676Z,9.59
2022-10-05T04:36:07.357Z,9.55
2022-10-05T04:38:48.878Z,9.58
2022-10-05T04:41:46.029Z,9.53
2022-10-05T04:44:34.808Z,9.54
2022-10-05T04:47:24.509Z,9.50
2022-10-05T04:50:11.305Z,9.45
2022-10-05T04:52:57.014Z,9.43
2022-10-05T04:55:37.750Z,9.44
2022-10-05T04:58:16.733Z,9.47
2022-10-05T05:00:57.970Z,9.48
2022-10-05T05:03:50.076Z,9.48
2022-10-05T05:06:34.137Z,9.49
2022-10-05T05:09:44.177Z,9.48
2022-10-05T05:12:25.658Z,9.44
2022-10-05T05:15:19.240Z,9.38
2022-10-05T05:18:06.987Z,9.38
2022-10-05T05:20:52.348Z,9.33
2022-10-05T05:23:31.295Z,9.27
2022-10-05T05:26:11.308Z,9.26
2022-10-05T05:28:49.454Z,9.21
2022-10-05T05:31:28.819Z,9.20
2022-10-05T05:34:06.885Z,9.18
2022-10-05T05:36:51.857Z,9.16
2022-10-05T05:39:26.541Z,9.10
2022-10-05T05:42:02.742Z,9.10
2022-10-05T05:44:42.797Z,9.09
2022-10-05T05:47:20.944Z,9.05
2022-10-05T05:50:17.761Z,9.04
2022-10-05T05:52:53.691Z,9.04
2022-10-05T05:55:30.319Z,9.04
2022-10-05T05:58:05.845Z,9.05
2022-10-05T06:00:41.410Z,9.05
2022-10-05T06:03:16.711Z,9.03
2022-10-05T06:05:49.828Z,9.01
2022-10-05T06:08:27.972Z,9.00
2022-10-05T06:11:12.303Z,9.00
2022-10-05T06:13:43.048Z,9.03
2022-10-05T06:16:20.662Z,9.04
2022-10-05T06:18:54.996Z,9.05
2022-10-05T06:21:31.714Z,9.04
2022-10-05T06:24:05.440Z,9.02
2022-10-05T06:27:19.924Z,9.06
2022-10-05T06:30:09.146Z,9.10
2022-10-05T06:33:04.946Z,9.11
2022-10-05T06:35:54.156Z,9.13
2022-10-05T06:38:54.234Z,9.15
2022-10-05T06:41:35.228Z,9.15
2022-10-05T06:44:11.491Z,9.16
2022-10-05T06:47:05.691Z,9.18
2022-10-05T06:50:07.261Z,9.21
2022-10-05T06:53:29.174Z,9.24
2022-10-05T06:56:07.055Z,9.26
2022-10-05T06:58:50.193Z,9.29
2022-10-05T07:01:32.064Z,9.34
2022-10-05T07:04:22.589Z,9.40
2022-10-05T07:06:58.220Z,9.42
2022-10-05T07:09:40.455Z,9.46
2022-10-05T07:12:35.353Z,9.48
2022-10-05T07:15:26.636Z,9.50
2022-10-05T07:18:12.722Z,9.54
2022-10-05T07:20:51.187Z,9.54
2022-10-05T07:23:46.404Z,9.57
2022-10-05T07:26:24.457Z,9.58
2022-10-05T07:29:11.182Z,9.61
2022-10-05T07:31:50.653Z,9.64
2022-10-05T07:34:36.240Z,9.68
2022-10-05T07:37:27.780Z,9.71
2022-10-05T07:40:07.720Z,9.77
2022-10-05T07:42:52.697Z,9.84
2022-10-05T07:45:31.193Z,9.87
2022-10-05T07:48:15.147Z,9.91
2022-10-05T07:51:01.337Z,9.96
2022-10-05T07:53:38.146Z,10.01
2022-10-05T07:56:17.112Z,10.03
2022-10-05T07:58:49.564Z,10.08
2022-10-05T08:01:23.640Z,10.11
2022-10-05T08:03:59.904Z,10.15
2022-10-05T08:06:42.296Z,10.19
2022-10-05T08:09:27.342Z,10.24
2022-10-05T08:12:10.637Z,10.29
2022-10-05T08:14:49.254Z,10.38
2022-10-05T08:17:31.900Z,10.47
2022-10-05T08:20:17.621Z,10.55
2022-10-05T08:22:52.042Z,10.60
2022-10-05T08:25:26.693Z,10.64
2022-10-05T08:28:05.412Z,10.67
2022-10-05T08:30:48.740Z,10.71
2022-10-05T08:33:20.779Z,10.77
2022-10-05T08:35:56.006Z,10.83
2022-10-05T08:38:32.806Z,10.91
2022-10-05T08:41:26.388Z,10.96
2022-10-05T08:45:13.855Z,11.09
2022-10-05T08:48:03.022Z,11.16
2022-10-05T08:50:55.293Z,11.21
2022-10-05T08:53:46.077Z,11.27
2022-10-05T08:56:37.126Z,11.31
2022-10-05T08:59:37.209Z,11.40
2022-10-05T09:02:26.727Z,11.51
2022-10-05T09:05:24.765Z,11.55
2022-10-05T09:08:21.724Z,11.57
2022-10-05T09:11:03.741Z,11.61
2022-10-05T09:13:54.675Z,11.65
2022-10-05T09:16:48.583Z,11.72
2022-10-05T09:20:20.970Z,11.82
2022-10-05T09:23:01.085Z,11.94
2022-10-05T09:25:44.767Z,11.99
2022-10-05T09:28:25.658Z,12.10
2022-10-05T09:31:17.581Z,12.16
2022-10-05T09:34:31.528Z,12.26
2022-10-05T09:37:49.683Z,12.34
2022-10-05T09:41:05.655Z,12.39
2022-10-05T09:44:53.996Z,12.53
2022-10-05T09:48:14.739Z,12.67
2022-10-05T09:51:25.676Z,12.81
2022-10-05T09:54:32.704Z,12.89
2022-10-05T09:57:49.287Z,13.14
2022-10-05T10:00:28.227Z,13.38
2022-10-05T10:03:27.359Z,13.45
2022-10-05T10:06:30.980Z,13.65
2022-10-05T10:09:29.190Z,13.84
2022-10-05T10:12:33.893Z,13.84
2022-10-05T10:15:48.288Z,13.85
2022-10-05T10:18:35.576Z,13.83
2022-10-05T10:21:36.168Z,13.89
2022-10-05T10:24:18.127Z,14.05
2022-10-05T10:27:09.383Z,14.23
2022-10-05T10:30:16.523Z,14.41
2022-10-05T10:33:15.678Z,14.69
2022-10-05T10:35:52.016Z,14.76
2022-10-05T10:38:40.034Z,14.72
2022-10-05T10:41:52.464Z,14.68
2022-10-05T10:44:49.293Z,14.70
2022-10-05T10:47:52.757Z,14.78
2022-10-05T10:51:05.173Z,15.06
2022-10-05T10:54:10.839Z,15.19
2022-10-05T10:56:58.015Z,15.23
2022-10-05T11:00:22.768Z,15.27
2022-10-05T11:03:35.578Z,15.36
2022-10-05T11:06:25.726Z,15.43
2022-10-05T11:09:13.149Z,15.53
2022-10-05T11:12:35.729Z,15.74
2022-10-05T11:19:21.697Z,15.84
2022-10-05T11:22:20.707Z,16.17
2022-10-05T11:25:31.204Z,16.61
2022-10-05T11:28:28.670Z,16.79
2022-10-05T11:32:01.798Z,16.90
2022-10-05T11:34:53.212Z,17.04
2022-10-05T11:38:04.908Z,17.17
2022-10-05T11:41:21.851Z,17.55
2022-10-05T11:44:44.409Z,18.02
2022-10-05T11:47:23.717Z,18.34
2022-10-05T11:50:06.484Z,18.66
2022-10-05T11:52:43.785Z,19.16
2022-10-05T11:55:25.768Z,19.37
2022-10-05T11:57:57.311Z,19.53
2022-10-05T12:00:37.738Z,19.81
2022-10-05T12:03:38.719Z,20.14
2022-10-05T12:06:35.832Z,20.37
2022-10-05T12:09:19.897Z,20.52
2022-10-05T12:12:04.925Z,20.72
2022-10-05T12:14:42.147Z,20.86
2022-10-05T12:17:24.958Z,20.97
2022-10-05T12:19:59.364Z,21.11
2022-10-05T12:22:34.717Z,21.22
2022-10-05T12:25:21.492Z,21.47
2022-10-05T12:27:53.431Z,21.77
2022-10-05T12:30:33.310Z,21.92
2022-10-05T12:33:12.313Z,21.96
2022-10-05T12:35:49.239Z,22.16
2022-10-05T12:38:28.379Z,22.32
2022-10-05T12:41:07.781Z,22.56
2022-10-05T12:43:50.075Z,22.79
2022-10-05T12:46:28.768Z,22.91
2022-10-05T12:49:25.834Z,22.94
2022-10-05T12:51:59.181Z,23.04
2022-10-05T12:54:43.807Z,23.23
2022-10-05T12:57:24.076Z,23.48
2022-10-05T12:59:59.473Z,23.59
2022-10-05T13:02:42.241Z,23.63
2022-10-05T13:05:26.608Z,23.72
2022-10-05T13:08:14.880Z,23.91
2022-10-05T13:10:49.901Z,23.98
2022-10-05T13:13:41.392Z,24.11
2022-10-05T13:16:18.736Z,24.16
2022-10-05T13:19:07.442Z,24.13
2022-10-05T13:22:02.889Z,24.11
2022-10-05T13:24:36.502Z,24.14
2022-10-05T13:27:14.204Z,24.27
2022-10-05T13:29:54.231Z,24.36
2022-10-05T13:32:26.908Z,24.44
2022-10-05T13:35:11.388Z,24.53
2022-10-05T13:37:46.892Z,24.53
2022-10-05T13:40:22.639Z,24.63
2022-10-05T13:43:00.226Z,24.80
2022-10-05T13:45:35.627Z,24.81
2022-10-05T13:48:19.941Z,24.96
2022-10-05T13:50:56.464Z,24.99
2022-10-05T13:53:36.403Z,24.93
2022-10-05T13:56:14.579Z,24.91
2022-10-05T13:58:49.945Z,24.96
2022-10-05T14:01:24.479Z,25.01
2022-10-05T14:04:07.870Z,24.93
2022-10-05T14:06:38.719Z,25.03
2022-10-05T14:09:15.552Z,25.09
2022-10-05T14:11:50.933Z,25.20
2022-10-05T14:14:28.220Z,25.31
2022-10-05T14:16:59.139Z,25.36
2022-10-05T14:19:32.822Z,25.49
2022-10-05T14:22:04.561Z,25.60
2022-10-05T14:24:45.504Z,25.64
2022-10-05T14:27:23.442Z,25.67
2022-10-05T14:30:00.696Z,25.78
2022-10-05T14:32:33.221Z,25.84
2022-10-05T14:35:15.053Z,25.95
2022-10-05T14:37:56.249Z,26.01
2022-10-05T14:40:32.954Z,26.07
2022-10-05T14:43:16.920Z,26.11
2022-10-05T14:45:55.999Z,26.17
2022-10-05T14:48:27.931Z,26.37
2022-10-05T14:50:59.287Z,26.48
2022-10-05T14:53:40.206Z,26.54
2022-10-05T14:56:32.118Z,26.55
2022-10-05T14:59:31.196Z,26.66
2022-10-05T15:02:12.718Z,26.74
2022-10-05T15:04:44.677Z,26.83
2022-10-05T15:07:24.687Z,26.88
2022-10-05T15:10:28.192Z,26.87
2022-10-05T15:13:11.631Z,27.00
2022-10-05T15:15:48.658Z,27.03
2022-10-05T15:18:32.198Z,27.07
2022-10-05T15:21:26.502Z,27.15
2022-10-05T15:23:58.910Z,27.27
2022-10-05T15:26:44.993Z,27.39
2022-10-05T15:29:37.975Z,27.50
2022-10-05T15:32:22.161Z,27.66
2022-10-05T15:35:05.279Z,27.66
2022-10-05T15:37:41.941Z,27.78
2022-10-05T15:40:23.005Z,27.87
2022-10-05T15:42:57.488Z,27.86
2022-10-05T15:45:33.503Z,27.85
2022-10-05T15:48:06.685Z,27.88
2022-10-05T15:50:45.549Z,27.84
2022-10-05T15:53:23.001Z,27.75
2022-10-05T15:55:56.806Z,27.70
2022-10-05T15:58:54.321Z,27.68
2022-10-05T16:01:47.140Z,27.68
2022-10-05T16:04:22.791Z,27.63
2022-10-05T16:07:13.878Z,27.58
2022-10-05T16:09:52.083Z,27.47
2022-10-05T16:12:42.636Z,27.35
2022-10-05T16:15:26.327Z,27.24
2022-10-05T16:18:32.486Z,27.05
2022-10-05T16:21:14.616Z,26.89
2022-10-05T16:24:04.821Z,26.69
2022-10-05T16:26:57.767Z,26.49
2022-10-05T16:29:39.869Z,26.37
2022-10-05T16:32:15.479Z,26.32
2022-10-05T16:35:07.761Z,26.21
2022-10-05T16:37:43.374Z,26.12
2022-10-05T16:40:21.262Z,26.07
2022-10-05T16:43:02.131Z,25.91
2022-10-05T16:45:48.320Z,25.66
2022-10-05T16:48:26.515Z,25.51
2022-10-05T16:51:21.555Z,25.38
2022-10-05T16:54:04.342Z,25.25
2022-10-05T16:56:41.085Z,25.17
2022-10-05T16:59:53.749Z,25.10
2022-10-05T17:02:39.636Z,25.05
2022-10-05T17:05:42.254Z,24.96
2022-10-05T17:08:41.787Z,24.71
2022-10-05T17:11:24.580Z,24.49
2022-10-05T17:14:32.981Z,24.22
2022-10-05T17:17:36.687Z,23.95
2022-10-05T17:20:23.550Z,23.75
2022-10-05T17:22:54.917Z,23.61
2022-10-05T17:25:40.215Z,23.45
2022-10-05T17:28:24.545Z,23.33
2022-10-05T17:31:14.545Z,23.14
2022-10-05T17:34:11.542Z,23.10
2022-10-05T17:36:47.468Z,23.09
2022-10-05T17:39:18.375Z,23.05
2022-10-05T17:41:48.687Z,23.03
2022-10-05T17:44:26.311Z,23.00
2022-10-05T17:47:00.368Z,23.05
2022-10-05T17:50:17.523Z,23.00
2022-10-05T17:53:45.901Z,22.94
2022-10-05T17:56:14.357Z,22.79
2022-10-05T17:59:06.819Z,22.61
2022-10-05T18:01:37.975Z,22.49
2022-10-05T18:04:34.457Z,22.40
2022-10-05T18:07:19.369Z,22.42
2022-10-05T18:09:59.993Z,22.43
2022-10-05T18:12:46.546Z,22.42
2022-10-05T18:15:50.121Z,22.35
2022-10-05T18:18:57.157Z,22.32
2022-10-05T18:21:39.466Z,22.28
2022-10-05T18:24:56.122Z,22.25
2022-10-05T18:28:03.845Z,22.21
2022-10-05T18:30:44.944Z,22.16
2022-10-05T18:33:53.450Z,21.94
2022-10-05T18:36:49.974Z,21.87
2022-10-05T18:39:55.151Z,21.66
2022-10-05T18:42:34.112Z,21.58
2022-10-05T18:45:18.251Z,21.47
2022-10-05T18:47:59.376Z,21.32
2022-10-05T18:50:34.199Z,21.26
2022-10-05T18:53:22.001Z,21.25
2022-10-05T18:56:02.178Z,21.24
2022-10-05T18:58:38.053Z,21.16
2022-10-05T19:01:46.181Z,20.99
2022-10-05T19:04:31.115Z,20.89
2022-10-05T19:07:13.754Z,20.80
2022-10-05T19:09:58.335Z,20.79
2022-10-05T19:12:41.506Z,20.74
2022-10-05T19:15:20.404Z,20.73
2022-10-05T19:18:24.090Z,20.69
2022-10-05T19:21:02.306Z,20.65
2022-10-05T19:23:49.682Z,20.41
2022-10-05T19:26:33.234Z,20.44
2022-10-05T19:29:16.057Z,20.38
2022-10-05T19:31:53.015Z,20.32
2022-10-05T19:34:39.319Z,20.31
2022-10-05T19:37:15.680Z,20.25
2022-10-05T19:39:52.090Z,20.22
2022-10-05T19:42:56.004Z,20.23
2022-10-05T19:45:26.012Z,20.24
2022-10-05T19:48:10.665Z,20.26
2022-10-05T19:50:39.792Z,20.27
2022-10-05T19:53:17.122Z,20.18
2022-10-05T19:55:47.182Z,20.13
2022-10-05T19:58:25.571Z,20.03
2022-10-05T20:00:57.729Z,19.96
2022-10-05T20:03:29.209Z,19.91
2022-10-05T20:06:00.161Z,19.83
2022-10-05T20:08:39.443Z,19.76
2022-10-05T20:11:12.201Z,19.69
2022-10-05T20:13:45.452Z,19.62
2022-10-05T20:16:46.264Z,19.54
2022-10-05T20:19:45.276Z,19.54
2022-10-05T20:22:27.654Z,19.53
2022-10-05T20:25:01.113Z,19.50
2022-10-05T20:27:43.834Z,19.41
2022-10-05T20:30:15.774Z,19.30
2022-10-05T20:32:45.533Z,19.25
2022-10-05T20:35:15.734Z,19.19
2022-10-05T20:37:44.105Z,19.16
2022-10-05T20:40:14.795Z,19.05
2022-10-05T20:42:43.090Z,19.01
2022-10-05T20:45:12.777Z,19.01
2022-10-05T20:47:42.200Z,18.97
2022-10-05T20:50:11.628Z,18.94
2022-10-05T20:52:40.940Z,18.89
2022-10-05T20:55:13.210Z,18.82
2022-10-05T20:57:42.511Z,18.73
2022-10-05T21:00:12.935Z,18.66
2022-10-05T21:02:41.232Z,18.62
2022-10-05T21:05:10.802Z,18.62
2022-10-05T21:07:40.821Z,18.53
2022-10-05T21:10:10.046Z,18.51
2022-10-05T21:12:39.763Z,18.50
2022-10-05T21:15:10.490Z,18.45
2022-10-05T21:17:38.825Z,18.43
2022-10-05T21:20:11.980Z,18.37
2022-10-05T21:22:40.291Z,18.29
2022-10-05T21:25:09.785Z,18.29
2022-10-05T21:27:39.819Z,18.21
2022-10-05T21:30:10.149Z,18.19
2022-10-05T21:32:44.002Z,18.16
2022-10-05T21:35:13.969Z,18.12
2022-10-05T21:37:42.257Z,18.08
2022-10-05T21:40:11.751Z,18.07
2022-10-05T21:42:41.392Z,18.03
2022-10-05T21:45:11.268Z,17.98
2022-10-05T21:47:39.550Z,17.98
2022-10-05T21:50:10.227Z,17.94
2022-10-05T21:52:38.671Z,17.87
2022-10-05T21:55:08.399Z,17.86
2022-10-05T21:57:37.860Z,17.83
2022-10-05T22:00:10.773Z,17.80
2022-10-05T22:02:39.147Z,17.74
2022-10-05T22:05:07.949Z,17.68
2022-10-05T22:07:36.189Z,17.65
2022-10-05T22:10:05.723Z,17.61
2022-10-05T22:12:34.588Z,17.56
2022-10-05T22:15:03.187Z,17.53
2022-10-05T22:17:33.125Z,17.48
2022-10-05T22:20:01.995Z,17.43
2022-10-05T22:22:30.959Z,17.40
2022-10-05T22:24:59.490Z,17.35
2022-10-05T22:27:30.660Z,17.30
2022-10-05T22:29:59.323Z,17.28
2022-10-05T22:32:27.589Z,17.24
2022-10-05T22:34:57.264Z,17.23
2022-10-05T22:37:25.565Z,17.16
2022-10-05T22:39:55.142Z,17.05
2022-10-05T22:42:23.475Z,17.01
2022-10-05T22:44:51.741Z,17.02
2022-10-05T22:47:20.024Z,16.91
2022-10-05T22:49:48.254Z,16.89
2022-10-05T22:52:18.307Z,16.80
2022-10-05T22:54:46.630Z,16.76
2022-10-05T22:57:14.954Z,16.77
2022-10-05T22:59:43.523Z,16.74
2022-10-05T23:02:12.447Z,16.71
2022-10-05T23:04:40.810Z,16.68
2022-10-05T23:07:09.224Z,16.65
2022-10-05T23:09:39.000Z,16.55
2022-10-05T23:12:07.495Z,16.51
2022-10-05T23:14:35.834Z,16.44
2022-10-05T23:17:04.282Z,16.36
2022-10-05T23:19:32.813Z,16.34
2022-10-05T23:22:01.145Z,16.31
2022-10-05T23:24:29.429Z,16.27
2022-10-05T23:26:59.118Z,16.26
2022-10-05T23:29:28.601Z,16.26
2022-10-05T23:31:56.816Z,16.27
2022-10-05T23:34:25.606Z,16.23
2022-10-05T23:36:54.021Z,16.20
2022-10-05T23:39:22.323Z,16.15
2022-10-05T23:41:50.602Z,16.17
2022-10-05T23:44:20.227Z,16.14
2022-10-05T23:46:48.421Z,16.14
2022-10-05T23:49:16.781Z,16.10
2022-10-05T23:51:45.378Z,16.14
2022-10-05T23:54:13.598Z,16.09
2022-10-05T23:56:41.950Z,16.09
2022-10-05T23:59:10.266Z,16.02
